Mc David, Florida
Current Conditions -  °F | °C
As of 11:24 AM on Friday 19 Dec 2014 (Local Time) from KNSE Reporting Station
Light Rain Light Rain  
Wind Chill: 45°   Ceiling: 9000
Heat Index: 48°   Visibility: 9mi
Dew Point: 48°   Wind: 6mph
Humidity: 100%   Direction: 140°SE
Pressure: 30.17"   Gusts: NA
Location:  30.8697°N, 87.4663°W
Report Text: KNSE 191724Z 14005KT 9SM -RA FEW006 SCT041 OVC090 09/09 A3017 RMK AO2 P0000 T00890089 $
Loading
Personal Weather Stations






























Interactive Weather Map New forecast layout! Learn more

10-Day Weather Forecast

Advertisements
Track Severe Weather on mobile